Time,TemperatureF,DewpointF,PressureIn,WindDirection,WindDirectionDegrees,WindSpeedMPH,WindSpeedGustMPH,Humidity,HourlyPrecipIn,Conditions,Clouds,dailyrainin,SoftwareType,DateUTC
2013-01-25 00:09:00,-9.4,-19.0,29.90,NNE,16,1.0,7.0,62,0.00,,,0.00,weatherlink.com 1.10,2013-01-25 09:09:00,
2013-01-25 00:24:00,-9.5,-19.0,29.90,NNW,333,0.0,7.0,62,0.00,,,0.00,weatherlink.com 1.10,2013-01-25 09:24:00,
2013-01-25 00:39:00,-9.9,-19.0,29.90,NNW,336,1.0,4.0,63,0.00,,,0.00,weatherlink.com 1.10,2013-01-25 09:39:00,
2013-01-25 00:54:00,-10.6,-20.0,29.90,NNW,331,0.0,3.0,64,0.00,,,0.00,weatherlink.com 1.10,2013-01-25 09:54:00,
2013-01-25 01:09:00,-10.8,-20.0,29.90,NNW,348,0.0,4.0,65,0.00,,,0.00,weatherlink.com 1.10,2013-01-25 10:09:00,
2013-01-25 01:24:00,-10.9,-20.0,29.90,North,1,2.0,6.0,65,0.00,,,0.00,weatherlink.com 1.10,2013-01-25 10:24:00,
2013-01-25 01:39:00,-11.2,-20.0,29.91,NE,50,0.0,4.0,66,0.00,,,0.00,weatherlink.com 1.10,2013-01-25 10:39:00,
2013-01-25 01:54:00,-11.5,-20.0,29.90,NNW,344,0.0,2.0,67,0.00,,,0.00,weatherlink.com 1.10,2013-01-25 10:54:00,
2013-01-25 02:09:00,-11.9,-20.0,29.91,West,276,0.0,3.0,67,0.00,,,0.00,weatherlink.com 1.10,2013-01-25 11:09:00,
2013-01-25 02:24:00,-12.0,-20.0,29.91,NNW,335,0.0,4.0,67,0.00,,,0.00,weatherlink.com 1.10,2013-01-25 11:24:00,
2013-01-25 02:39:00,-11.4,-19.0,29.91,North,357,1.0,5.0,68,0.00,,,0.00,weatherlink.com 1.10,2013-01-25 11:39:00,
2013-01-25 02:54:00,-11.8,-20.0,29.91,North,351,1.0,4.0,66,0.00,,,0.00,weatherlink.com 1.10,2013-01-25 11:54:00,
2013-01-25 03:10:00,-11.9,-20.0,29.92,NNW,347,0.0,3.0,66,0.00,,,0.00,weatherlink.com 1.10,2013-01-25 12:10:00,
2013-01-25 03:24:00,-12.3,-20.0,29.92,North,350,0.0,3.0,67,0.00,,,0.00,weatherlink.com 1.10,2013-01-25 12:24:00,
2013-01-25 03:39:00,-12.5,-21.0,29.92,West,267,0.0,5.0,67,0.00,,,0.00,weatherlink.com 1.10,2013-01-25 12:39:00,
2013-01-25 03:55:00,-12.4,-20.0,29.92,NW,326,0.0,2.0,67,0.00,,,0.00,weatherlink.com 1.10,2013-01-25 12:55:00,
2013-01-25 04:10:00,-12.7,-21.0,29.92,NE,56,0.0,1.0,66,0.00,,,0.00,weatherlink.com 1.10,2013-01-25 13:10:00,
2013-01-25 04:25:00,-13.3,-21.0,29.92,NNE,30,0.0,3.0,67,0.00,,,0.00,weatherlink.com 1.10,2013-01-25 13:25:00,
2013-01-25 04:40:00,-13.8,-22.0,29.91,West,259,0.0,3.0,68,0.00,,,0.00,weatherlink.com 1.10,2013-01-25 13:40:00,
2013-01-25 04:55:00,-13.7,-21.0,29.92,North,1,2.0,5.0,68,0.00,,,0.00,weatherlink.com 1.10,2013-01-25 13:55:00,
2013-01-25 05:10:00,-13.4,-21.0,29.92,NW,323,1.0,4.0,67,0.00,,,0.00,weatherlink.com 1.10,2013-01-25 14:10:00,
2013-01-25 05:25:00,-13.0,-21.0,29.92,NW,305,1.0,4.0,67,0.00,,,0.00,weatherlink.com 1.10,2013-01-25 14:25:00,
2013-01-25 05:40:00,-11.9,-21.0,29.92,East,82,3.0,4.0,65,0.00,,,0.00,weatherlink.com 1.10,2013-01-25 14:40:00,
2013-01-25 05:56:00,-12.6,-22.0,29.93,North,8,1.0,1.0,64,0.00,,,0.00,weatherlink.com 1.10,2013-01-25 14:56:00,
2013-01-25 06:10:00,-13.1,-21.0,29.93,NNW,335,0.0,1.0,66,0.00,,,0.00,weatherlink.com 1.10,2013-01-25 15:10:00,
2013-01-25 06:25:00,-12.6,-21.0,29.93,ESE,117,2.0,3.0,65,0.00,,,0.00,weatherlink.com 1.10,2013-01-25 15:25:00,
2013-01-25 06:40:00,-13.4,-22.0,29.93,WSW,249,0.0,1.0,65,0.00,,,0.00,weatherlink.com 1.10,2013-01-25 15:40:00,
2013-01-25 06:55:00,-13.0,-22.0,29.94,NW,326,0.0,2.0,65,0.00,,,0.00,weatherlink.com 1.10,2013-01-25 15:55:00,
2013-01-25 07:11:00,-13.4,-22.0,29.94,North,350,0.0,2.0,66,0.00,,,0.00,weatherlink.com 1.10,2013-01-25 16:11:00,
2013-01-25 07:26:00,-13.3,-22.0,29.95,NNW,340,0.0,2.0,66,0.00,,,0.00,weatherlink.com 1.10,2013-01-25 16:26:00,
2013-01-25 07:41:00,-13.3,-22.0,29.95,NW,323,0.0,3.0,65,0.00,,,0.00,weatherlink.com 1.10,2013-01-25 16:41:00,
2013-01-25 07:56:00,-13.7,-22.0,29.95,NNW,347,0.0,1.0,66,0.00,,,0.00,weatherlink.com 1.10,2013-01-25 16:56:00,
2013-01-25 08:11:00,-14.2,-22.0,29.95,NNW,339,1.0,1.0,67,0.00,,,0.00,weatherlink.com 1.10,2013-01-25 17:11:00,
2013-01-25 08:26:00,-14.3,-23.0,29.95,West,276,0.0,1.0,66,0.00,,,0.00,weatherlink.com 1.10,2013-01-25 17:26:00,
2013-01-25 08:41:00,-15.1,-22.0,29.95,West,276,0.0,0.0,69,0.00,,,0.00,weatherlink.com 1.10,2013-01-25 17:41:00,
2013-01-25 08:56:00,-14.5,-22.0,29.96,East,86,0.0,0.0,69,0.00,,,0.00,weatherlink.com 1.10,2013-01-25 17:56:00,
2013-01-25 09:11:00,-14.5,-22.0,29.96,East,86,0.0,0.0,68,0.00,,,0.00,weatherlink.com 1.10,2013-01-25 18:11:00,
2013-01-25 09:26:00,-15.2,-23.0,29.96,North,349,0.0,1.0,68,0.00,,,0.00,weatherlink.com 1.10,2013-01-25 18:26:00,
2013-01-25 09:42:00,-15.5,-23.0,29.96,North,351,0.0,1.0,70,0.00,,,0.00,weatherlink.com 1.10,2013-01-25 18:42:00,
2013-01-25 09:56:00,-16.1,-23.0,29.96,North,360,0.0,0.0,69,0.00,,,0.00,weatherlink.com 1.10,2013-01-25 18:56:00,
2013-01-25 10:11:00,-16.1,-23.0,29.97,ESE,114,0.0,0.0,70,0.00,,,0.00,weatherlink.com 1.10,2013-01-25 19:11:00,
2013-01-25 10:26:00,-15.7,-23.0,29.97,ESE,115,0.0,0.0,70,0.00,,,0.00,weatherlink.com 1.10,2013-01-25 19:26:00,
2013-01-25 10:42:00,-15.6,-23.0,29.97,ENE,75,0.0,0.0,70,0.00,,,0.00,weatherlink.com 1.10,2013-01-25 19:42:00,
2013-01-25 10:57:00,-14.5,-22.0,29.98,SE,129,0.0,0.0,70,0.00,,,0.00,weatherlink.com 1.10,2013-01-25 19:57:00,
2013-01-25 11:12:00,-13.3,-21.0,29.98,SE,129,0.0,0.0,67,0.00,,,0.00,weatherlink.com 1.10,2013-01-25 20:12:00,
2013-01-25 11:27:00,-12.6,-21.0,29.98,SE,129,0.0,0.0,66,0.00,,,0.00,weatherlink.com 1.10,2013-01-25 20:27:00,
2013-01-25 11:42:00,-12.7,-21.0,29.98,SSW,207,0.0,1.0,65,0.00,,,0.00,weatherlink.com 1.10,2013-01-25 20:42:00,
2013-01-25 11:57:00,-12.7,-21.0,29.99,SE,135,1.0,2.0,65,0.00,,,0.00,weatherlink.com 1.10,2013-01-25 20:57:00,
2013-01-25 12:12:00,-12.5,-22.0,29.99,ESE,123,0.0,2.0,64,0.00,,,0.00,weatherlink.com 1.10,2013-01-25 21:12:00,
2013-01-25 12:27:00,-13.6,-23.0,29.99,WNW,292,0.0,1.0,64,0.00,,,0.00,weatherlink.com 1.10,2013-01-25 21:27:00,
2013-01-25 12:43:00,-13.5,-22.0,30.00,WNW,292,0.0,1.0,66,0.00,,,0.00,weatherlink.com 1.10,2013-01-25 21:43:00,
2013-01-25 12:57:00,-13.9,-22.0,30.00,WNW,292,0.0,0.0,66,0.00,,,0.00,weatherlink.com 1.10,2013-01-25 21:57:00,
2013-01-25 13:12:00,-13.6,-23.0,30.00,SE,131,0.0,1.0,64,0.00,,,0.00,weatherlink.com 1.10,2013-01-25 22:12:00,
2013-01-25 13:27:00,-14.8,-24.0,30.01,SE,129,0.0,3.0,63,0.00,,,0.00,weatherlink.com 1.10,2013-01-25 22:27:00,
2013-01-25 13:42:00,-14.4,-23.0,30.01,SE,132,1.0,2.0,66,0.00,,,0.00,weatherlink.com 1.10,2013-01-25 22:42:00,
2013-01-25 13:58:00,-13.4,-22.0,30.01,ENE,57,1.0,2.0,66,0.00,,,0.00,weatherlink.com 1.10,2013-01-25 22:58:00,
2013-01-25 14:13:00,-15.4,-25.0,30.01,ESE,118,0.0,2.0,63,0.00,,,0.00,weatherlink.com 1.10,2013-01-25 23:13:00,
2013-01-25 14:28:00,-17.9,-26.0,30.02,ESE,117,0.0,2.0,65,0.00,,,0.00,weatherlink.com 1.10,2013-01-25 23:28:00,
2013-01-25 14:43:00,-18.3,-26.0,30.02,ESE,120,0.0,1.0,68,0.00,,,0.00,weatherlink.com 1.10,2013-01-25 23:43:00,
2013-01-25 14:58:00,-18.7,-26.0,30.02,North,356,0.0,1.0,70,0.00,,,0.00,weatherlink.com 1.10,2013-01-25 23:58:00,
2013-01-25 15:13:00,-18.2,-25.0,30.02,NNW,337,0.0,1.0,71,0.00,,,0.00,weatherlink.com 1.10,2013-01-26 00:13:00,
2013-01-25 15:28:00,-17.6,-24.0,30.03,NNW,337,0.0,0.0,73,0.00,,,0.00,weatherlink.com 1.10,2013-01-26 00:28:00,
2013-01-25 15:43:00,-16.5,-24.0,30.03,NNW,338,0.0,0.0,70,0.00,,,0.00,weatherlink.com 1.10,2013-01-26 00:43:00,
2013-01-25 15:58:00,-15.1,-22.0,30.03,NNW,337,0.0,0.0,70,0.00,,,0.00,weatherlink.com 1.10,2013-01-26 00:58:00,
2013-01-25 16:13:00,-16.2,-24.0,30.03,NNW,338,0.0,0.0,69,0.00,,,0.00,weatherlink.com 1.10,2013-01-26 01:13:00,
2013-01-25 16:28:00,-16.7,-23.0,30.04,NNW,337,0.0,0.0,71,0.00,,,0.00,weatherlink.com 1.10,2013-01-26 01:28:00,
2013-01-25 16:44:00,-16.5,-24.0,30.04,ESE,108,0.0,2.0,70,0.00,,,0.00,weatherlink.com 1.10,2013-01-26 01:44:00,
2013-01-25 16:59:00,-17.3,-24.0,30.05,ESE,111,0.0,1.0,72,0.00,,,0.00,weatherlink.com 1.10,2013-01-26 01:59:00,
2013-01-25 17:14:00,-16.5,-23.0,30.05,SE,135,0.0,1.0,72,0.00,,,0.00,weatherlink.com 1.10,2013-01-26 02:14:00,
2013-01-25 17:29:00,-17.4,-24.0,30.05,ESE,120,0.0,1.0,71,0.00,,,0.00,weatherlink.com 1.10,2013-01-26 02:29:00,
2013-01-25 17:44:00,-18.4,-25.0,30.05,SSE,147,0.0,2.0,71,0.00,,,0.00,weatherlink.com 1.10,2013-01-26 02:44:00,
2013-01-25 17:59:00,-18.7,-25.0,30.05,SSE,153,0.0,3.0,73,0.00,,,0.00,weatherlink.com 1.10,2013-01-26 02:59:00,
2013-01-25 18:14:00,-19.3,-25.0,30.05,SSE,153,0.0,0.0,76,0.00,,,0.00,weatherlink.com 1.10,2013-01-26 03:14:00,
2013-01-25 18:29:00,-19.1,-24.0,30.05,SSE,153,0.0,0.0,76,0.00,,,0.00,weatherlink.com 1.10,2013-01-26 03:29:00,
2013-01-25 18:44:00,-19.2,-25.0,30.06,SE,128,0.0,1.0,76,0.00,,,0.00,weatherlink.com 1.10,2013-01-26 03:44:00,
2013-01-25 18:59:00,-19.3,-25.0,30.06,SE,129,0.0,0.0,76,0.00,,,0.00,weatherlink.com 1.10,2013-01-26 03:59:00,
2013-01-25 19:14:00,-19.0,-25.0,30.07,SE,128,0.0,1.0,75,0.00,,,0.00,weatherlink.com 1.10,2013-01-26 04:14:00,
2013-01-25 19:30:00,-18.3,-24.0,30.06,North,352,0.0,1.0,76,0.00,,,0.00,weatherlink.com 1.10,2013-01-26 04:30:00,
2013-01-25 19:44:00,-17.5,-23.0,30.07,North,350,0.0,1.0,74,0.00,,,0.00,weatherlink.com 1.10,2013-01-26 04:44:00,
2013-01-25 19:59:00,-17.8,-23.0,30.07,North,350,0.0,1.0,75,0.00,,,0.00,weatherlink.com 1.10,2013-01-26 04:59:00,
2013-01-25 20:15:00,-18.4,-25.0,30.07,SE,131,0.0,1.0,73,0.00,,,0.00,weatherlink.com 1.10,2013-01-26 05:15:00,
2013-01-25 20:29:00,-17.7,-24.0,30.07,NE,50,0.0,0.0,73,0.00,,,0.00,weatherlink.com 1.10,2013-01-26 05:29:00,
2013-01-25 20:44:00,-18.6,-25.0,30.07,West,276,0.0,1.0,72,0.00,,,0.00,weatherlink.com 1.10,2013-01-26 05:44:00,
2013-01-25 21:00:00,-18.6,-24.0,30.07,West,278,0.0,1.0,75,0.00,,,0.00,weatherlink.com 1.10,2013-01-26 06:00:00,
2013-01-25 21:15:00,-18.8,-25.0,30.07,NNW,337,0.0,1.0,74,0.00,,,0.00,weatherlink.com 1.10,2013-01-26 06:15:00,
2013-01-25 21:30:00,-18.9,-25.0,30.06,NNW,337,0.0,0.0,75,0.00,,,0.00,weatherlink.com 1.10,2013-01-26 06:30:00,
2013-01-25 21:45:00,-19.6,-25.0,30.07,SE,135,0.0,0.0,74,0.00,,,0.00,weatherlink.com 1.10,2013-01-26 06:45:00,
2013-01-25 22:00:00,-20.8,-26.0,30.07,ESE,122,0.0,1.0,75,0.00,,,0.00,weatherlink.com 1.10,2013-01-26 07:00:00,
2013-01-25 22:15:00,-20.9,-26.0,30.07,ESE,122,0.0,1.0,76,0.00,,,0.00,weatherlink.com 1.10,2013-01-26 07:15:00,
2013-01-25 22:30:00,-22.5,-28.0,30.07,SE,142,0.0,2.0,75,0.00,,,0.00,weatherlink.com 1.10,2013-01-26 07:30:00,
2013-01-25 22:45:00,-23.1,-28.0,30.07,ESE,111,0.0,2.0,77,0.00,,,0.00,weatherlink.com 1.10,2013-01-26 07:45:00,
2013-01-25 23:00:00,-23.1,-28.0,30.07,ESE,112,0.0,1.0,78,0.00,,,0.00,weatherlink.com 1.10,2013-01-26 08:00:00,
2013-01-25 23:16:00,-22.9,-28.0,30.07,NW,305,0.0,1.0,78,0.00,,,0.00,weatherlink.com 1.10,2013-01-26 08:16:00,
2013-01-25 23:31:00,-24.1,-29.0,30.07,NW,305,0.0,0.0,78,0.00,,,0.00,weatherlink.com 1.10,2013-01-26 08:31:00,
2013-01-25 23:46:00,-23.6,-28.0,30.07,NW,304,0.0,0.0,78,0.00,,,0.00,weatherlink.com 1.10,2013-01-26 08:46:00,